createdAt,value
2022-07-30T00:00:51.083Z,98541.53
2022-07-30T00:03:17.844Z,98545.47
2022-07-30T00:05:44.554Z,98540.81
2022-07-30T00:08:11.724Z,98547.66
2022-07-30T00:10:39.249Z,98544.22
2022-07-30T00:13:06.473Z,98545.34
2022-07-30T00:15:33.409Z,98546.44
2022-07-30T00:18:00.110Z,98544.03
2022-07-30T00:20:28.144Z,98540.81
2022-07-30T00:22:55.071Z,98551.66
2022-07-30T00:25:23.188Z,98557.97
2022-07-30T00:27:49.908Z,98569.25
2022-07-30T00:30:16.670Z,98572.28
2022-07-30T00:32:44.613Z,98567.38
2022-07-30T00:35:11.391Z,98562.03
2022-07-30T00:37:38.056Z,98566.47
2022-07-30T00:40:06.854Z,98568.44
2022-07-30T00:42:51.936Z,98556.69
2022-07-30T00:45:18.873Z,98565.75
2022-07-30T00:47:46.222Z,98578.81
2022-07-30T00:50:14.677Z,98581.09
2022-07-30T00:52:42.714Z,98582.63
2022-07-30T00:55:11.683Z,98581.38
2022-07-30T00:57:39.357Z,98580.00
2022-07-30T01:00:09.569Z,98576.69
2022-07-30T01:02:36.466Z,98588.50
2022-07-30T01:05:03.351Z,98592.41
2022-07-30T01:07:30.210Z,98595.50
2022-07-30T01:09:56.830Z,98587.84
2022-07-30T01:12:27.258Z,98590.69
2022-07-30T01:14:57.005Z,98588.94
2022-07-30T01:17:23.774Z,98585.31
2022-07-30T01:19:52.566Z,98599.13
2022-07-30T01:22:30.612Z,98598.34
2022-07-30T01:25:03.749Z,98591.59
2022-07-30T01:27:35.539Z,98591.31
2022-07-30T01:30:05.255Z,98574.50
2022-07-30T01:32:35.029Z,98582.84
2022-07-30T01:35:04.560Z,98588.91
2022-07-30T01:37:34.012Z,98593.00
2022-07-30T01:40:03.230Z,98600.03
2022-07-30T01:42:30.983Z,98600.72
2022-07-30T01:44:58.648Z,98609.41
2022-07-30T01:47:27.935Z,98605.41
2022-07-30T01:49:55.508Z,98607.38
2022-07-30T01:52:24.712Z,98604.63
2022-07-30T01:54:54.714Z,98600.72
2022-07-30T01:57:22.203Z,98597.59
2022-07-30T01:59:52.832Z,98610.19
2022-07-30T02:02:20.055Z,98606.13
2022-07-30T02:04:47.473Z,98600.16
2022-07-30T02:07:19.985Z,98609.69
2022-07-30T02:09:54.279Z,98599.72
2022-07-30T02:12:30.986Z,98606.13
2022-07-30T02:15:11.787Z,98595.94
2022-07-30T02:18:07.559Z,98603.03
2022-07-30T02:20:35.943Z,98589.41
2022-07-30T02:23:15.292Z,98595.69
2022-07-30T02:25:47.202Z,98592.16
2022-07-30T02:28:15.717Z,98588.50
2022-07-30T02:30:55.456Z,98583.47
2022-07-30T02:33:33.757Z,98599.75
2022-07-30T02:36:02.468Z,98595.19
2022-07-30T02:38:31.110Z,98598.38
2022-07-30T02:41:00.317Z,98592.09
2022-07-30T02:43:29.809Z,98602.41
2022-07-30T02:46:03.751Z,98613.03
2022-07-30T02:48:34.911Z,98620.75
2022-07-30T02:51:07.729Z,98615.59
2022-07-30T02:53:37.510Z,98617.91
2022-07-30T02:56:07.587Z,98618.59
2022-07-30T02:58:35.694Z,98625.69
2022-07-30T03:01:03.083Z,98634.41
2022-07-30T03:03:30.888Z,98636.00
2022-07-30T03:05:59.704Z,98629.56
2022-07-30T03:08:31.715Z,98621.69
2022-07-30T03:10:59.178Z,98629.56
2022-07-30T03:13:27.290Z,98620.09
2022-07-30T03:15:56.984Z,98632.56
2022-07-30T03:18:25.853Z,98635.78
2022-07-30T03:20:56.462Z,98634.06
2022-07-30T03:23:24.165Z,98635.31
2022-07-30T03:26:08.721Z,98635.22
2022-07-30T03:28:39.656Z,98646.66
2022-07-30T03:31:07.890Z,98640.97
2022-07-30T03:33:38.694Z,98641.53
2022-07-30T03:36:07.629Z,98643.84
2022-07-30T03:38:37.772Z,98645.00
2022-07-30T03:41:08.135Z,98639.28
2022-07-30T03:43:35.749Z,98650.81
2022-07-30T03:46:04.028Z,98655.50
2022-07-30T03:48:34.891Z,98658.97
2022-07-30T03:51:04.895Z,98644.88
2022-07-30T03:53:32.412Z,98659.19
2022-07-30T03:56:00.284Z,98652.81
2022-07-30T03:58:30.573Z,98661.28
2022-07-30T04:01:04.163Z,98667.88
2022-07-30T04:03:32.601Z,98664.03
2022-07-30T04:06:00.482Z,98664.69
2022-07-30T04:08:30.673Z,98678.56
2022-07-30T04:10:59.235Z,98661.16
2022-07-30T04:13:25.878Z,98669.03
2022-07-30T04:16:39.019Z,98670.19
2022-07-30T04:19:11.883Z,98678.88
2022-07-30T04:21:41.779Z,98681.31
2022-07-30T04:24:10.815Z,98691.72
2022-07-30T04:26:38.328Z,98691.59
2022-07-30T04:29:07.964Z,98699.50
2022-07-30T04:31:38.199Z,98697.88
2022-07-30T04:34:07.456Z,98702.94
2022-07-30T04:36:36.030Z,98694.91
2022-07-30T04:39:03.963Z,98706.34
2022-07-30T04:41:35.487Z,98691.50
2022-07-30T04:44:17.666Z,98701.13
2022-07-30T04:46:44.667Z,98710.03
2022-07-30T04:49:14.182Z,98713.94
2022-07-30T04:51:41.539Z,98712.88
2022-07-30T04:54:15.748Z,98706.84
2022-07-30T04:56:53.765Z,98715.50
2022-07-30T04:59:28.034Z,98717.09
2022-07-30T05:02:00.934Z,98719.00
2022-07-30T05:04:29.788Z,98712.94
2022-07-30T05:07:01.608Z,98728.25
2022-07-30T05:09:29.944Z,98722.88
2022-07-30T05:11:58.052Z,98722.72
2022-07-30T05:14:29.784Z,98726.81
2022-07-30T05:16:56.383Z,98727.91
2022-07-30T05:19:24.081Z,98734.50
2022-07-30T05:21:51.129Z,98733.34
2022-07-30T05:24:21.338Z,98739.06
2022-07-30T05:26:49.710Z,98736.97
2022-07-30T05:29:19.912Z,98732.88
2022-07-30T05:31:47.407Z,98736.75
2022-07-30T05:34:13.948Z,98742.34
2022-07-30T05:36:40.913Z,98727.88
2022-07-30T05:39:14.088Z,98735.84
2022-07-30T05:41:41.265Z,98736.41
2022-07-30T05:44:08.068Z,98738.53
2022-07-30T05:46:34.779Z,98734.63
2022-07-30T05:49:01.485Z,98734.97
2022-07-30T05:51:28.091Z,98739.16
2022-07-30T05:53:54.613Z,98736.03
2022-07-30T05:56:21.222Z,98730.78
2022-07-30T05:58:47.763Z,98744.03
2022-07-30T06:01:14.312Z,98742.50
2022-07-30T06:03:40.847Z,98734.41
2022-07-30T06:06:07.672Z,98745.25
2022-07-30T06:08:34.775Z,98742.59
2022-07-30T06:11:01.290Z,98734.22
2022-07-30T06:13:27.866Z,98743.34
2022-07-30T06:15:55.763Z,98750.66
2022-07-30T06:18:25.293Z,98752.63
2022-07-30T06:20:54.556Z,98749.00
2022-07-30T06:23:21.731Z,98755.63
2022-07-30T06:25:49.422Z,98741.63
2022-07-30T06:28:37.043Z,98754.78
2022-07-30T06:31:05.154Z,98753.22
2022-07-30T06:33:31.722Z,98752.19
2022-07-30T06:35:58.653Z,98748.78
2022-07-30T06:38:27.631Z,98761.72
2022-07-30T06:40:54.137Z,98754.72
2022-07-30T06:43:21.517Z,98760.66
2022-07-30T06:45:48.115Z,98753.06
2022-07-30T06:48:14.650Z,98756.84
2022-07-30T06:50:44.320Z,98749.94
2022-07-30T06:53:11.179Z,98764.69
2022-07-30T06:55:37.700Z,98769.91
2022-07-30T06:58:04.586Z,98768.88
2022-07-30T07:00:31.243Z,98772.66
2022-07-30T07:02:57.687Z,98766.56
2022-07-30T07:05:25.395Z,98766.19
2022-07-30T07:07:59.168Z,98768.59
2022-07-30T07:10:26.961Z,98766.16
2022-07-30T07:12:55.500Z,98773.44
2022-07-30T07:15:36.292Z,98765.03
2022-07-30T07:18:05.201Z,98775.88
2022-07-30T07:20:32.392Z,98780.75
2022-07-30T07:22:58.965Z,98768.06
2022-07-30T07:25:25.510Z,98770.09
2022-07-30T07:28:11.725Z,98789.56
2022-07-30T07:30:41.703Z,98783.28
2022-07-30T07:33:08.557Z,98775.59
2022-07-30T07:35:45.492Z,98775.66
2022-07-30T07:38:18.250Z,98776.84
2022-07-30T07:40:45.306Z,98779.25
2022-07-30T07:43:11.799Z,98779.25
2022-07-30T07:45:39.877Z,98775.00
2022-07-30T07:48:06.913Z,98783.09
2022-07-30T07:50:33.593Z,98775.28
2022-07-30T07:53:00.285Z,98774.06
2022-07-30T07:55:27.037Z,98781.19
2022-07-30T07:57:54.258Z,98778.09
2022-07-30T08:00:21.895Z,98783.59
2022-07-30T08:02:49.214Z,98783.59
2022-07-30T08:05:17.394Z,98782.09
2022-07-30T08:07:45.930Z,98781.28
2022-07-30T08:10:15.025Z,98770.91
2022-07-30T08:12:42.396Z,98778.84
2022-07-30T08:15:09.736Z,98784.59
2022-07-30T08:17:44.236Z,98784.34
2022-07-30T08:20:12.198Z,98784.72
2022-07-30T08:22:39.147Z,98774.84
2022-07-30T08:25:06.394Z,98774.72
2022-07-30T08:27:33.035Z,98767.88
2022-07-30T08:30:04.336Z,98780.25
2022-07-30T08:32:30.875Z,98773.03
2022-07-30T08:34:57.454Z,98773.19
2022-07-30T08:37:24.124Z,98776.41
2022-07-30T08:39:50.584Z,98782.88
2022-07-30T08:42:17.317Z,98788.81
2022-07-30T08:44:46.024Z,98777.72
2022-07-30T08:47:17.608Z,98773.44
2022-07-30T08:49:46.685Z,98785.41
2022-07-30T08:52:13.244Z,98781.59
2022-07-30T08:54:47.051Z,98784.81
2022-07-30T08:57:14.699Z,98779.31
2022-07-30T08:59:59.387Z,98778.53
2022-07-30T09:02:30.759Z,98792.03
2022-07-30T09:04:57.679Z,98776.28
2022-07-30T09:07:24.622Z,98772.75
2022-07-30T09:09:51.177Z,98776.47
2022-07-30T09:12:39.072Z,98780.97
2022-07-30T09:15:20.268Z,98785.97
2022-07-30T09:17:58.908Z,98795.19
2022-07-30T09:20:29.289Z,98782.69
2022-07-30T09:23:06.565Z,98786.03
2022-07-30T09:25:45.931Z,98788.50
2022-07-30T09:28:17.081Z,98792.56
2022-07-30T09:30:52.660Z,98782.81
2022-07-30T09:33:38.050Z,98784.31
2022-07-30T09:36:12.693Z,98780.56
2022-07-30T09:38:50.440Z,98763.00
2022-07-30T09:41:39.191Z,98780.97
2022-07-30T09:44:09.844Z,98773.72
2022-07-30T09:46:48.323Z,98771.44
2022-07-30T09:49:26.455Z,98779.63
2022-07-30T09:51:57.198Z,98771.44
2022-07-30T09:54:52.825Z,98773.66
2022-07-30T09:57:25.808Z,98775.34
2022-07-30T10:00:01.199Z,98768.63
2022-07-30T10:02:39.824Z,98778.63
2022-07-30T10:05:15.286Z,98763.94
2022-07-30T10:07:53.188Z,98764.50
2022-07-30T10:10:25.656Z,98778.28
2022-07-30T10:12:57.257Z,98776.06
2022-07-30T10:15:28.155Z,98771.41
2022-07-30T10:17:55.805Z,98766.69
2022-07-30T10:20:22.979Z,98767.47
2022-07-30T10:22:57.874Z,98767.47
2022-07-30T10:25:28.380Z,98760.34
2022-07-30T10:27:57.065Z,98767.56
2022-07-30T10:30:28.181Z,98758.84
2022-07-30T10:32:57.469Z,98766.81
2022-07-30T10:35:37.960Z,98756.44
2022-07-30T10:38:13.503Z,98755.66
2022-07-30T10:40:50.934Z,98762.44
2022-07-30T10:43:35.959Z,98757.31
2022-07-30T10:46:27.561Z,98762.06
2022-07-30T10:48:55.881Z,98750.06
2022-07-30T10:51:43.667Z,98753.28
2022-07-30T10:54:36.662Z,98739.38
2022-07-30T10:57:15.147Z,98738.63
2022-07-30T10:59:55.409Z,98734.25
2022-07-30T11:02:23.972Z,98741.41
2022-07-30T11:05:18.056Z,98742.19
2022-07-30T11:07:47.259Z,98743.38
2022-07-30T11:10:40.020Z,98747.75
2022-07-30T11:13:08.031Z,98750.53
2022-07-30T11:16:00.211Z,98744.56
2022-07-30T11:18:30.977Z,98749.34
2022-07-30T11:21:21.242Z,98747.75
2022-07-30T11:23:54.946Z,98746.97
2022-07-30T11:26:38.579Z,98741.81
2022-07-30T11:29:32.846Z,98737.44
2022-07-30T11:32:27.144Z,98735.41
2022-07-30T11:35:17.650Z,98746.19
2022-07-30T11:38:09.715Z,98736.63
2022-07-30T11:40:59.519Z,98735.81
2022-07-30T11:43:43.292Z,98737.41
2022-07-30T11:46:15.702Z,98734.25
2022-07-30T11:48:54.644Z,98738.25
2022-07-30T11:51:22.140Z,98735.47
2022-07-30T11:54:02.403Z,98731.88
2022-07-30T11:56:29.985Z,98731.81
2022-07-30T11:59:19.837Z,98736.56
2022-07-30T12:01:50.965Z,98722.28
2022-07-30T12:04:17.601Z,98721.53
2022-07-30T12:06:48.940Z,98727.50
2022-07-30T12:09:41.910Z,98720.31
2022-07-30T12:12:24.312Z,98722.22
2022-07-30T12:14:52.909Z,98703.88
2022-07-30T12:17:20.179Z,98714.13
2022-07-30T12:19:49.595Z,98714.94
2022-07-30T12:22:16.193Z,98713.31
2022-07-30T12:24:44.004Z,98710.53
2022-07-30T12:27:10.498Z,98724.47
2022-07-30T12:29:37.802Z,98711.50
2022-07-30T12:32:04.803Z,98712.69
2022-07-30T12:34:31.512Z,98706.75
2022-07-30T12:37:08.962Z,98705.56
2022-07-30T12:39:35.799Z,98702.34
2022-07-30T12:42:03.703Z,98700.75
2022-07-30T12:44:41.021Z,98698.78
2022-07-30T12:47:26.005Z,98704.25
2022-07-30T12:50:01.377Z,98696.56
2022-07-30T12:52:34.634Z,98698.91
2022-07-30T12:55:12.727Z,98691.34
2022-07-30T12:57:55.927Z,98680.75
2022-07-30T13:00:26.837Z,98685.59
2022-07-30T13:02:53.398Z,98684.31
2022-07-30T13:05:20.613Z,98693.38
2022-07-30T13:08:00.204Z,98673.59
2022-07-30T13:10:31.174Z,98676.78
2022-07-30T13:12:58.647Z,98670.19
2022-07-30T13:15:26.389Z,98675.59
2022-07-30T13:17:53.209Z,98658.78
2022-07-30T13:20:21.156Z,98659.03
2022-07-30T13:22:47.876Z,98660.97
2022-07-30T13:25:14.776Z,98661.72
2022-07-30T13:27:41.333Z,98665.88
2022-07-30T13:30:08.765Z,98656.31
2022-07-30T13:32:35.302Z,98658.59
2022-07-30T13:35:02.326Z,98654.50
2022-07-30T13:37:38.352Z,98668.00
2022-07-30T13:40:06.839Z,98647.88
2022-07-30T13:42:33.750Z,98643.63
2022-07-30T13:45:00.463Z,98649.44
2022-07-30T13:47:27.022Z,98643.41
2022-07-30T13:49:53.764Z,98636.09
2022-07-30T13:52:23.290Z,98641.16
2022-07-30T13:54:52.707Z,98635.13
2022-07-30T13:57:20.455Z,98638.53
2022-07-30T13:59:47.066Z,98645.97
2022-07-30T14:02:13.627Z,98639.25
2022-07-30T14:04:40.092Z,98637.69
2022-07-30T14:07:07.776Z,98636.31
2022-07-30T14:09:34.449Z,98633.63
2022-07-30T14:12:11.882Z,98619.97
2022-07-30T14:14:38.897Z,98628.91
2022-07-30T14:17:05.640Z,98624.84
2022-07-30T14:19:32.265Z,98614.00
2022-07-30T14:21:58.909Z,98616.34
2022-07-30T14:24:25.604Z,98619.06
2022-07-30T14:26:57.744Z,98623.56
2022-07-30T14:29:26.714Z,98623.56
2022-07-30T14:31:53.663Z,98607.22
2022-07-30T14:34:20.194Z,98609.38
2022-07-30T14:36:46.656Z,98608.72
2022-07-30T14:39:13.215Z,98606.22
2022-07-30T14:41:40.082Z,98619.69
2022-07-30T14:44:09.916Z,98609.88
2022-07-30T14:46:36.856Z,98606.00
2022-07-30T14:49:19.380Z,98610.06
2022-07-30T14:51:46.102Z,98608.25
2022-07-30T14:54:15.051Z,98600.75
2022-07-30T14:56:42.060Z,98602.25
2022-07-30T14:59:08.657Z,98601.75
2022-07-30T15:01:35.682Z,98607.44
2022-07-30T15:04:02.549Z,98596.00
2022-07-30T15:06:29.558Z,98601.38
2022-07-30T15:08:56.060Z,98615.00
2022-07-30T15:11:26.750Z,98601.50
2022-07-30T15:13:53.510Z,98597.19
2022-07-30T15:16:21.422Z,98592.75
2022-07-30T15:18:48.045Z,98592.84
2022-07-30T15:21:14.841Z,98597.47
2022-07-30T15:23:41.367Z,98602.59
2022-07-30T15:26:08.494Z,98593.41
2022-07-30T15:28:35.010Z,98594.78
2022-07-30T15:31:06.182Z,98598.06
2022-07-30T15:33:36.689Z,98599.72
2022-07-30T15:36:06.951Z,98603.81
2022-07-30T15:38:35.105Z,98616.22
2022-07-30T15:41:02.288Z,98604.34
2022-07-30T15:43:28.954Z,98593.63
2022-07-30T15:45:56.714Z,98590.34
2022-07-30T15:48:26.892Z,98589.50
2022-07-30T15:51:04.723Z,98582.94
2022-07-30T15:53:34.309Z,98582.31
2022-07-30T15:56:01.502Z,98586.78
2022-07-30T15:58:28.361Z,98592.53
2022-07-30T16:00:55.209Z,98596.34
2022-07-30T16:03:21.864Z,98599.78
2022-07-30T16:05:51.437Z,98597.59
2022-07-30T16:08:21.072Z,98599.25
2022-07-30T16:10:49.272Z,98596.09
2022-07-30T16:13:16.952Z,98607.63
2022-07-30T16:15:44.003Z,98602.47
2022-07-30T16:18:11.011Z,98607.25
2022-07-30T16:20:38.182Z,98593.59
2022-07-30T16:23:11.803Z,98597.53
2022-07-30T16:25:40.009Z,98595.22
2022-07-30T16:28:06.501Z,98590.56
2022-07-30T16:30:33.895Z,98585.84
2022-07-30T16:33:01.112Z,98581.84
2022-07-30T16:35:27.753Z,98580.28
2022-07-30T16:37:57.539Z,98588.16
2022-07-30T16:40:27.881Z,98580.56
2022-07-30T16:42:54.350Z,98588.81
2022-07-30T16:45:21.300Z,98588.78
2022-07-30T16:47:53.064Z,98593.59
2022-07-30T16:50:21.665Z,98591.72
2022-07-30T16:52:50.265Z,98596.94
2022-07-30T16:55:17.341Z,98585.13
2022-07-30T16:57:48.032Z,98585.16
2022-07-30T17:00:15.052Z,98591.19
2022-07-30T17:02:42.207Z,98581.22
2022-07-30T17:05:13.318Z,98580.44
2022-07-30T17:07:40.518Z,98588.00
2022-07-30T17:10:07.532Z,98587.66
2022-07-30T17:12:46.839Z,98587.66
2022-07-30T17:15:18.136Z,98592.81
2022-07-30T17:17:44.834Z,98580.47
2022-07-30T17:20:15.371Z,98588.41
2022-07-30T17:22:43.204Z,98597.56
2022-07-30T17:25:10.370Z,98595.53
2022-07-30T17:27:37.475Z,98597.16
2022-07-30T17:30:05.659Z,98594.03
2022-07-30T17:32:32.391Z,98585.25
2022-07-30T17:34:59.645Z,98590.09
2022-07-30T17:37:26.772Z,98596.88
2022-07-30T17:40:27.064Z,98593.34
2022-07-30T17:42:43.965Z,98595.78
2022-07-30T17:45:11.769Z,98592.53
2022-07-30T17:47:38.697Z,98606.34
2022-07-30T17:50:07.683Z,98609.38
2022-07-30T17:52:37.148Z,98608.34
2022-07-30T17:55:04.388Z,98614.00
2022-07-30T17:57:30.943Z,98609.31
2022-07-30T17:59:57.799Z,98610.94
2022-07-30T18:02:27.698Z,98607.78
2022-07-30T18:04:56.552Z,98618.13
2022-07-30T18:07:24.054Z,98607.81
2022-07-30T18:09:50.985Z,98616.16
2022-07-30T18:12:17.477Z,98616.53
2022-07-30T18:14:44.694Z,98625.31
2022-07-30T18:17:14.405Z,98622.13
2022-07-30T18:19:41.321Z,98621.34
2022-07-30T18:22:08.990Z,98622.94
2022-07-30T18:24:40.215Z,98618.16
2022-07-30T18:27:07.539Z,98619.75
2022-07-30T18:29:34.062Z,98631.69
2022-07-30T18:32:00.882Z,98634.09
2022-07-30T18:34:27.612Z,98631.72
2022-07-30T18:36:56.042Z,98628.91
2022-07-30T18:39:22.559Z,98625.34
2022-07-30T18:41:49.118Z,98626.94
2022-07-30T18:44:15.888Z,98641.22
2022-07-30T18:46:44.183Z,98642.78
2022-07-30T18:49:34.259Z,98642.00
2022-07-30T18:52:02.770Z,98655.06
2022-07-30T18:54:30.768Z,98658.63
2022-07-30T18:56:57.942Z,98664.97
2022-07-30T18:59:24.469Z,98666.53
2022-07-30T19:01:53.582Z,98660.97
2022-07-30T19:04:20.131Z,98666.50
2022-07-30T19:06:46.999Z,98672.03
2022-07-30T19:09:20.801Z,98674.78
2022-07-30T19:11:47.468Z,98676.75
2022-07-30T19:14:15.060Z,98670.75
2022-07-30T19:16:42.795Z,98671.91
2022-07-30T19:19:13.912Z,98672.69
2022-07-30T19:21:41.420Z,98690.09
2022-07-30T19:24:10.087Z,98685.69
2022-07-30T19:26:38.933Z,98691.22
2022-07-30T19:29:09.191Z,98689.22
2022-07-30T19:31:36.152Z,98693.53
2022-07-30T19:34:03.518Z,98693.50
2022-07-30T19:36:30.374Z,98701.00
2022-07-30T19:39:00.733Z,98695.81
2022-07-30T19:41:41.005Z,98697.34
2022-07-30T19:44:13.662Z,98706.41
2022-07-30T19:46:48.691Z,98706.41
2022-07-30T19:49:19.630Z,98705.16
2022-07-30T19:52:06.998Z,98711.88
2022-07-30T19:54:33.992Z,98710.25
2022-07-30T19:57:03.578Z,98720.16
2022-07-30T19:59:45.057Z,98720.91
2022-07-30T20:02:15.674Z,98715.69
2022-07-30T20:04:43.612Z,98720.38
2022-07-30T20:07:10.581Z,98717.94
2022-07-30T20:09:39.617Z,98724.22
2022-07-30T20:12:10.013Z,98733.72
2022-07-30T20:14:36.681Z,98728.09
2022-07-30T20:17:09.929Z,98733.59
2022-07-30T20:19:37.323Z,98721.25
2022-07-30T20:22:04.380Z,98732.75
2022-07-30T20:24:30.999Z,98725.47
2022-07-30T20:26:57.835Z,98734.13
2022-07-30T20:29:24.526Z,98743.19
2022-07-30T20:31:51.128Z,98744.38
2022-07-30T20:34:25.743Z,98749.88
2022-07-30T20:36:53.949Z,98752.16
2022-07-30T20:39:26.329Z,98748.97
2022-07-30T20:42:13.730Z,98748.97
2022-07-30T20:44:43.732Z,98744.53
2022-07-30T20:47:34.319Z,98738.22
2022-07-30T20:50:05.659Z,98745.66
2022-07-30T20:52:36.647Z,98736.84
2022-07-30T20:55:03.455Z,98739.56
2022-07-30T20:57:56.302Z,98742.28
2022-07-30T21:00:20.198Z,98747.78
2022-07-30T21:02:46.998Z,98744.59
2022-07-30T21:05:20.714Z,98752.38
2022-07-30T21:07:47.603Z,98756.66
2022-07-30T21:10:14.598Z,98751.38
2022-07-30T21:12:44.821Z,98756.94
2022-07-30T21:15:23.441Z,98749.78
2022-07-30T21:17:51.316Z,98753.28
2022-07-30T21:20:27.705Z,98755.22
2022-07-30T21:22:56.105Z,98751.19
2022-07-30T21:25:23.620Z,98753.56
2022-07-30T21:28:00.119Z,98768.47
2022-07-30T21:30:26.769Z,98768.41
2022-07-30T21:32:53.488Z,98767.56
2022-07-30T21:35:21.519Z,98767.88
2022-07-30T21:37:48.473Z,98766.59
2022-07-30T21:40:16.286Z,98767.38
2022-07-30T21:42:48.592Z,98765.00
2022-07-30T21:45:15.706Z,98762.53
2022-07-30T21:47:47.614Z,98768.06
2022-07-30T21:50:16.002Z,98768.84
2022-07-30T21:52:43.799Z,98767.38
2022-07-30T21:55:13.283Z,98770.53
2022-07-30T21:57:40.655Z,98778.44
2022-07-30T22:00:14.951Z,98772.88
2022-07-30T22:02:53.906Z,98778.78
2022-07-30T22:05:23.282Z,98783.06
2022-07-30T22:07:50.441Z,98780.97
2022-07-30T22:10:21.756Z,98782.94
2022-07-30T22:12:48.654Z,98795.59
2022-07-30T22:15:15.497Z,98794.00
2022-07-30T22:17:58.413Z,98782.09
2022-07-30T22:20:28.004Z,98786.88
2022-07-30T22:22:55.753Z,98796.34
2022-07-30T22:25:22.509Z,98793.84
2022-07-30T22:27:56.308Z,98791.03
2022-07-30T22:30:26.549Z,98785.84
2022-07-30T22:32:54.215Z,98791.25
2022-07-30T22:35:32.431Z,98789.53
2022-07-30T22:38:01.109Z,98791.06
2022-07-30T22:40:27.610Z,98791.00
2022-07-30T22:42:54.438Z,98794.06
2022-07-30T22:48:10.078Z,98788.97
2022-07-30T22:50:40.241Z,98790.16
2022-07-30T22:53:14.618Z,98793.94
2022-07-30T22:55:55.814Z,98789.94
2022-07-30T22:58:26.259Z,98790.81
2022-07-30T23:00:53.270Z,98787.25
2022-07-30T23:03:20.004Z,98790.00
2022-07-30T23:05:55.843Z,98782.44
2022-07-30T23:08:29.819Z,98786.00
2022-07-30T23:10:59.496Z,98781.59
2022-07-30T23:12:34.571Z,98793.31
2022-07-30T23:13:27.173Z,98785.06
2022-07-30T23:15:53.862Z,98794.88
2022-07-30T23:18:20.730Z,98777.81
2022-07-30T23:20:47.268Z,98783.19
2022-07-30T23:23:14.219Z,98782.97
2022-07-30T23:25:40.928Z,98787.44
2022-07-30T23:28:08.754Z,98783.44
2022-07-30T23:30:35.770Z,98786.84
2022-07-30T23:33:03.300Z,98792.72
2022-07-30T23:35:30.465Z,98783.59
2022-07-30T23:37:57.421Z,98781.53
2022-07-30T23:40:24.002Z,98779.06
2022-07-30T23:42:51.054Z,98778.19
2022-07-30T23:45:18.723Z,98782.13
2022-07-30T23:47:51.268Z,98779.34
2022-07-30T23:50:29.870Z,98772.88
2022-07-30T23:52:56.393Z,98781.06
2022-07-30T23:55:23.060Z,98787.31
2022-07-30T23:57:49.583Z,98790.25
